sensor_id;sensor_type;location;lat;lon;timestamp;P1;durP1;ratioP1;P2;durP2;ratioP2
19038;SDS011;9652;49.014;12.052;2023-02-28T00:00:16;7.27;;;6.67;;
19038;SDS011;9652;49.014;12.052;2023-02-28T00:02:45;6.97;;;6.27;;
19038;SDS011;9652;49.014;12.052;2023-02-28T00:05:13;6.57;;;5.97;;
19038;SDS011;9652;49.014;12.052;2023-02-28T00:07:46;6.40;;;5.87;;
19038;SDS011;9652;49.014;12.052;2023-02-28T00:10:16;6.73;;;5.83;;
19038;SDS011;9652;49.014;12.052;2023-02-28T00:12:46;7.10;;;6.50;;
19038;SDS011;9652;49.014;12.052;2023-02-28T00:15:13;7.50;;;6.80;;
19038;SDS011;9652;49.014;12.052;2023-02-28T00:17:40;6.47;;;5.87;;
19038;SDS011;9652;49.014;12.052;2023-02-28T00:20:08;6.20;;;5.77;;
19038;SDS011;9652;49.014;12.052;2023-02-28T00:22:40;7.17;;;6.53;;
19038;SDS011;9652;49.014;12.052;2023-02-28T00:25:10;7.43;;;6.77;;
19038;SDS011;9652;49.014;12.052;2023-02-28T00:27:39;6.73;;;6.13;;
19038;SDS011;9652;49.014;12.052;2023-02-28T00:30:09;6.93;;;6.33;;
19038;SDS011;9652;49.014;12.052;2023-02-28T00:32:39;7.40;;;6.70;;
19038;SDS011;9652;49.014;12.052;2023-02-28T00:35:07;7.93;;;6.40;;
19038;SDS011;9652;49.014;12.052;2023-02-28T00:37:36;7.60;;;6.90;;
19038;SDS011;9652;49.014;12.052;2023-02-28T00:40:05;8.10;;;7.30;;
19038;SDS011;9652;49.014;12.052;2023-02-28T00:42:35;6.83;;;6.23;;
19038;SDS011;9652;49.014;12.052;2023-02-28T00:45:02;7.83;;;5.93;;
19038;SDS011;9652;49.014;12.052;2023-02-28T00:47:31;6.83;;;6.23;;
19038;SDS011;9652;49.014;12.052;2023-02-28T00:49:58;7.30;;;6.60;;
19038;SDS011;9652;49.014;12.052;2023-02-28T00:52:27;7.53;;;6.67;;
19038;SDS011;9652;49.014;12.052;2023-02-28T00:54:55;7.13;;;6.47;;
19038;SDS011;9652;49.014;12.052;2023-02-28T00:57:22;6.83;;;6.23;;
19038;SDS011;9652;49.014;12.052;2023-02-28T00:59:49;7.03;;;6.43;;
19038;SDS011;9652;49.014;12.052;2023-02-28T01:02:20;9.10;;;6.23;;
19038;SDS011;9652;49.014;12.052;2023-02-28T01:04:47;7.77;;;7.10;;
19038;SDS011;9652;49.014;12.052;2023-02-28T01:07:15;7.27;;;5.33;;
19038;SDS011;9652;49.014;12.052;2023-02-28T01:09:42;5.53;;;5.03;;
19038;SDS011;9652;49.014;12.052;2023-02-28T01:12:10;7.37;;;6.67;;
19038;SDS011;9652;49.014;12.052;2023-02-28T01:14:37;7.53;;;6.83;;
19038;SDS011;9652;49.014;12.052;2023-02-28T01:17:04;6.90;;;6.27;;
19038;SDS011;9652;49.014;12.052;2023-02-28T01:19:32;7.10;;;6.50;;
19038;SDS011;9652;49.014;12.052;2023-02-28T01:22:00;7.43;;;6.83;;
19038;SDS011;9652;49.014;12.052;2023-02-28T01:24:28;7.37;;;6.20;;
19038;SDS011;9652;49.014;12.052;2023-02-28T01:26:55;7.23;;;6.43;;
19038;SDS011;9652;49.014;12.052;2023-02-28T01:29:24;6.83;;;6.27;;
19038;SDS011;9652;49.014;12.052;2023-02-28T01:31:51;7.13;;;6.37;;
19038;SDS011;9652;49.014;12.052;2023-02-28T01:34:19;6.57;;;5.97;;
19038;SDS011;9652;49.014;12.052;2023-02-28T01:36:46;8.07;;;7.37;;
19038;SDS011;9652;49.014;12.052;2023-02-28T01:39:13;7.53;;;6.77;;
19038;SDS011;9652;49.014;12.052;2023-02-28T01:41:40;8.17;;;7.37;;
19038;SDS011;9652;49.014;12.052;2023-02-28T01:47:29;7.83;;;6.73;;
19038;SDS011;9652;49.014;12.052;2023-02-28T01:50:01;8.47;;;7.10;;
19038;SDS011;9652;49.014;12.052;2023-02-28T01:52:33;8.00;;;7.20;;
19038;SDS011;9652;49.014;12.052;2023-02-28T01:55:01;8.90;;;7.10;;
19038;SDS011;9652;49.014;12.052;2023-02-28T01:57:33;9.77;;;6.60;;
19038;SDS011;9652;49.014;12.052;2023-02-28T02:00:06;7.60;;;6.77;;
19038;SDS011;9652;49.014;12.052;2023-02-28T02:02:38;8.27;;;7.30;;
19038;SDS011;9652;49.014;12.052;2023-02-28T02:05:09;8.47;;;7.20;;
19038;SDS011;9652;49.014;12.052;2023-02-28T02:07:40;7.53;;;6.40;;
19038;SDS011;9652;49.014;12.052;2023-02-28T02:10:13;7.87;;;6.97;;
19038;SDS011;9652;49.014;12.052;2023-02-28T02:12:47;9.60;;;6.53;;
19038;SDS011;9652;49.014;12.052;2023-02-28T02:15:46;7.77;;;7.07;;
19038;SDS011;9652;49.014;12.052;2023-02-28T02:18:29;6.83;;;6.30;;
19038;SDS011;9652;49.014;12.052;2023-02-28T02:21:17;8.17;;;7.47;;
19038;SDS011;9652;49.014;12.052;2023-02-28T02:24:45;7.03;;;6.43;;
19038;SDS011;9652;49.014;12.052;2023-02-28T02:27:36;7.40;;;6.60;;
19038;SDS011;9652;49.014;12.052;2023-02-28T02:30:57;7.33;;;6.63;;
19038;SDS011;9652;49.014;12.052;2023-02-28T02:36:53;6.57;;;5.93;;
19038;SDS011;9652;49.014;12.052;2023-02-28T02:39:36;6.67;;;6.07;;
19038;SDS011;9652;49.014;12.052;2023-02-28T02:42:14;6.97;;;6.33;;
19038;SDS011;9652;49.014;12.052;2023-02-28T02:44:51;7.83;;;6.80;;
19038;SDS011;9652;49.014;12.052;2023-02-28T02:47:27;6.87;;;6.30;;
19038;SDS011;9652;49.014;12.052;2023-02-28T02:50:01;8.20;;;7.40;;
19038;SDS011;9652;49.014;12.052;2023-02-28T02:52:35;6.80;;;6.10;;
19038;SDS011;9652;49.014;12.052;2023-02-28T02:55:07;9.10;;;7.33;;
19038;SDS011;9652;49.014;12.052;2023-02-28T02:57:40;7.10;;;6.23;;
19038;SDS011;9652;49.014;12.052;2023-02-28T03:00:14;8.27;;;7.20;;
19038;SDS011;9652;49.014;12.052;2023-02-28T03:02:46;8.03;;;7.33;;
19038;SDS011;9652;49.014;12.052;2023-02-28T03:05:19;7.63;;;6.93;;
19038;SDS011;9652;49.014;12.052;2023-02-28T03:07:51;7.73;;;6.97;;
19038;SDS011;9652;49.014;12.052;2023-02-28T03:10:26;7.23;;;6.53;;
19038;SDS011;9652;49.014;12.052;2023-02-28T03:13:04;8.53;;;7.67;;
19038;SDS011;9652;49.014;12.052;2023-02-28T03:16:22;8.07;;;6.57;;
19038;SDS011;9652;49.014;12.052;2023-02-28T03:19:30;10.40;;;7.90;;
19038;SDS011;9652;49.014;12.052;2023-02-28T03:25:20;7.93;;;7.17;;
19038;SDS011;9652;49.014;12.052;2023-02-28T03:27:59;7.97;;;7.27;;
19038;SDS011;9652;49.014;12.052;2023-02-28T03:30:33;8.87;;;7.97;;
19038;SDS011;9652;49.014;12.052;2023-02-28T03:33:10;8.67;;;7.80;;
19038;SDS011;9652;49.014;12.052;2023-02-28T03:35:45;7.77;;;6.97;;
19038;SDS011;9652;49.014;12.052;2023-02-28T03:38:24;8.77;;;7.97;;
19038;SDS011;9652;49.014;12.052;2023-02-28T03:41:00;9.37;;;6.80;;
19038;SDS011;9652;49.014;12.052;2023-02-28T03:43:38;8.97;;;7.77;;
19038;SDS011;9652;49.014;12.052;2023-02-28T03:46:12;9.10;;;8.20;;
19038;SDS011;9652;49.014;12.052;2023-02-28T03:48:48;10.23;;;7.20;;
19038;SDS011;9652;49.014;12.052;2023-02-28T03:51:22;9.57;;;7.40;;
19038;SDS011;9652;49.014;12.052;2023-02-28T03:53:56;7.70;;;6.90;;
19038;SDS011;9652;49.014;12.052;2023-02-28T03:56:30;9.53;;;7.97;;
19038;SDS011;9652;49.014;12.052;2023-02-28T03:59:04;11.87;;;8.00;;
19038;SDS011;9652;49.014;12.052;2023-02-28T04:01:41;9.87;;;8.13;;
19038;SDS011;9652;49.014;12.052;2023-02-28T04:04:12;9.97;;;8.17;;
19038;SDS011;9652;49.014;12.052;2023-02-28T04:06:41;8.83;;;6.83;;
19038;SDS011;9652;49.014;12.052;2023-02-28T04:09:12;9.00;;;7.67;;
19038;SDS011;9652;49.014;12.052;2023-02-28T04:11:41;10.00;;;7.63;;
19038;SDS011;9652;49.014;12.052;2023-02-28T04:14:11;9.00;;;8.20;;
19038;SDS011;9652;49.014;12.052;2023-02-28T04:16:40;9.17;;;8.10;;
19038;SDS011;9652;49.014;12.052;2023-02-28T04:19:09;8.03;;;7.33;;
19038;SDS011;9652;49.014;12.052;2023-02-28T04:21:39;9.37;;;7.73;;
19038;SDS011;9652;49.014;12.052;2023-02-28T04:24:10;8.63;;;7.77;;
19038;SDS011;9652;49.014;12.052;2023-02-28T04:26:41;9.03;;;8.10;;
19038;SDS011;9652;49.014;12.052;2023-02-28T04:29:12;9.93;;;8.03;;
19038;SDS011;9652;49.014;12.052;2023-02-28T04:31:45;11.57;;;7.47;;
19038;SDS011;9652;49.014;12.052;2023-02-28T04:34:12;9.17;;;8.23;;
19038;SDS011;9652;49.014;12.052;2023-02-28T04:36:39;8.77;;;7.57;;
19038;SDS011;9652;49.014;12.052;2023-02-28T04:39:06;11.10;;;8.57;;
19038;SDS011;9652;49.014;12.052;2023-02-28T04:41:36;9.07;;;7.40;;
19038;SDS011;9652;49.014;12.052;2023-02-28T04:44:03;9.57;;;7.93;;
19038;SDS011;9652;49.014;12.052;2023-02-28T04:46:31;9.33;;;8.23;;
19038;SDS011;9652;49.014;12.052;2023-02-28T04:48:58;10.93;;;8.63;;
19038;SDS011;9652;49.014;12.052;2023-02-28T04:51:25;10.40;;;8.07;;
19038;SDS011;9652;49.014;12.052;2023-02-28T04:53:52;7.63;;;6.93;;
19038;SDS011;9652;49.014;12.052;2023-02-28T04:56:20;9.37;;;8.23;;
19038;SDS011;9652;49.014;12.052;2023-02-28T04:58:49;10.30;;;8.37;;
19038;SDS011;9652;49.014;12.052;2023-02-28T05:01:19;9.47;;;8.03;;
19038;SDS011;9652;49.014;12.052;2023-02-28T05:03:50;11.00;;;8.87;;
19038;SDS011;9652;49.014;12.052;2023-02-28T05:06:19;11.63;;;7.43;;
19038;SDS011;9652;49.014;12.052;2023-02-28T05:08:48;11.20;;;8.90;;
19038;SDS011;9652;49.014;12.052;2023-02-28T05:11:17;8.80;;;7.60;;
19038;SDS011;9652;49.014;12.052;2023-02-28T05:13:47;11.97;;;8.53;;
19038;SDS011;9652;49.014;12.052;2023-02-28T05:16:17;16.37;;;7.10;;
19038;SDS011;9652;49.014;12.052;2023-02-28T05:18:45;9.43;;;7.70;;
19038;SDS011;9652;49.014;12.052;2023-02-28T05:24:03;8.93;;;7.67;;
19038;SDS011;9652;49.014;12.052;2023-02-28T05:26:33;10.03;;;7.37;;
19038;SDS011;9652;49.014;12.052;2023-02-28T05:29:03;10.23;;;7.80;;
19038;SDS011;9652;49.014;12.052;2023-02-28T05:31:31;10.57;;;8.30;;
19038;SDS011;9652;49.014;12.052;2023-02-28T05:33:59;11.03;;;7.50;;
19038;SDS011;9652;49.014;12.052;2023-02-28T05:36:26;9.93;;;8.07;;
19038;SDS011;9652;49.014;12.052;2023-02-28T05:38:53;8.13;;;7.37;;
19038;SDS011;9652;49.014;12.052;2023-02-28T05:41:20;8.77;;;7.57;;
19038;SDS011;9652;49.014;12.052;2023-02-28T05:43:48;9.40;;;8.50;;
19038;SDS011;9652;49.014;12.052;2023-02-28T05:46:16;9.33;;;7.83;;
19038;SDS011;9652;49.014;12.052;2023-02-28T05:48:45;10.17;;;8.70;;
19038;SDS011;9652;49.014;12.052;2023-02-28T05:51:14;9.50;;;8.30;;
19038;SDS011;9652;49.014;12.052;2023-02-28T05:53:42;10.40;;;7.80;;
19038;SDS011;9652;49.014;12.052;2023-02-28T05:56:09;9.00;;;7.10;;
19038;SDS011;9652;49.014;12.052;2023-02-28T05:58:36;9.37;;;7.90;;
19038;SDS011;9652;49.014;12.052;2023-02-28T06:03:57;10.60;;;8.17;;
19038;SDS011;9652;49.014;12.052;2023-02-28T06:06:24;9.50;;;8.40;;
19038;SDS011;9652;49.014;12.052;2023-02-28T06:08:52;11.93;;;8.37;;
19038;SDS011;9652;49.014;12.052;2023-02-28T06:11:19;9.27;;;8.27;;
19038;SDS011;9652;49.014;12.052;2023-02-28T06:13:46;7.83;;;7.07;;
19038;SDS011;9652;49.014;12.052;2023-02-28T06:16:13;10.83;;;8.00;;
19038;SDS011;9652;49.014;12.052;2023-02-28T06:18:40;10.17;;;7.70;;
19038;SDS011;9652;49.014;12.052;2023-02-28T06:21:09;9.27;;;7.93;;
19038;SDS011;9652;49.014;12.052;2023-02-28T06:23:36;11.50;;;8.90;;
19038;SDS011;9652;49.014;12.052;2023-02-28T06:26:03;10.17;;;7.50;;
19038;SDS011;9652;49.014;12.052;2023-02-28T06:28:30;10.53;;;7.70;;
19038;SDS011;9652;49.014;12.052;2023-02-28T06:31:05;12.40;;;9.83;;
19038;SDS011;9652;49.014;12.052;2023-02-28T06:33:33;9.97;;;7.70;;
19038;SDS011;9652;49.014;12.052;2023-02-28T06:36:01;9.13;;;7.50;;
19038;SDS011;9652;49.014;12.052;2023-02-28T06:38:31;10.13;;;8.03;;
19038;SDS011;9652;49.014;12.052;2023-02-28T06:41:00;9.07;;;7.67;;
19038;SDS011;9652;49.014;12.052;2023-02-28T06:43:28;9.07;;;8.17;;
19038;SDS011;9652;49.014;12.052;2023-02-28T06:45:58;11.00;;;7.67;;
19038;SDS011;9652;49.014;12.052;2023-02-28T06:48:29;10.20;;;7.83;;
19038;SDS011;9652;49.014;12.052;2023-02-28T06:51:01;8.23;;;7.43;;
19038;SDS011;9652;49.014;12.052;2023-02-28T06:53:31;7.93;;;7.13;;
19038;SDS011;9652;49.014;12.052;2023-02-28T06:55:59;10.23;;;8.17;;
19038;SDS011;9652;49.014;12.052;2023-02-28T06:58:30;12.07;;;8.93;;
19038;SDS011;9652;49.014;12.052;2023-02-28T07:00:57;9.77;;;8.77;;
19038;SDS011;9652;49.014;12.052;2023-02-28T07:03:24;12.77;;;8.37;;
19038;SDS011;9652;49.014;12.052;2023-02-28T07:05:51;9.83;;;8.00;;
19038;SDS011;9652;49.014;12.052;2023-02-28T07:08:18;10.63;;;7.87;;
19038;SDS011;9652;49.014;12.052;2023-02-28T07:10:47;10.03;;;8.70;;
19038;SDS011;9652;49.014;12.052;2023-02-28T07:13:18;10.17;;;7.70;;
19038;SDS011;9652;49.014;12.052;2023-02-28T07:15:52;10.03;;;7.83;;
19038;SDS011;9652;49.014;12.052;2023-02-28T07:18:20;11.23;;;8.33;;
19038;SDS011;9652;49.014;12.052;2023-02-28T07:20:48;9.50;;;7.33;;
19038;SDS011;9652;49.014;12.052;2023-02-28T07:23:15;10.50;;;8.37;;
19038;SDS011;9652;49.014;12.052;2023-02-28T07:25:43;9.93;;;7.97;;
19038;SDS011;9652;49.014;12.052;2023-02-28T07:28:12;11.87;;;8.20;;
19038;SDS011;9652;49.014;12.052;2023-02-28T07:30:40;11.40;;;8.80;;
19038;SDS011;9652;49.014;12.052;2023-02-28T07:33:07;11.10;;;8.00;;
19038;SDS011;9652;49.014;12.052;2023-02-28T07:35:34;11.83;;;8.70;;
19038;SDS011;9652;49.014;12.052;2023-02-28T07:38:01;9.73;;;7.47;;
19038;SDS011;9652;49.014;12.052;2023-02-28T07:40:29;9.27;;;8.07;;
19038;SDS011;9652;49.014;12.052;2023-02-28T07:42:57;12.53;;;9.00;;
19038;SDS011;9652;49.014;12.052;2023-02-28T07:45:27;8.83;;;7.30;;
19038;SDS011;9652;49.014;12.052;2023-02-28T07:47:56;10.97;;;8.23;;
19038;SDS011;9652;49.014;12.052;2023-02-28T07:50:23;10.73;;;8.03;;
19038;SDS011;9652;49.014;12.052;2023-02-28T07:52:50;9.83;;;8.40;;
19038;SDS011;9652;49.014;12.052;2023-02-28T07:55:17;10.47;;;8.40;;
19038;SDS011;9652;49.014;12.052;2023-02-28T07:57:44;11.83;;;8.17;;
19038;SDS011;9652;49.014;12.052;2023-02-28T08:00:12;9.93;;;7.70;;
19038;SDS011;9652;49.014;12.052;2023-02-28T08:02:41;12.80;;;8.67;;
19038;SDS011;9652;49.014;12.052;2023-02-28T08:05:08;12.33;;;8.27;;
19038;SDS011;9652;49.014;12.052;2023-02-28T08:07:35;11.60;;;8.03;;
19038;SDS011;9652;49.014;12.052;2023-02-28T08:10:03;8.07;;;6.73;;
19038;SDS011;9652;49.014;12.052;2023-02-28T08:12:31;10.77;;;8.37;;
19038;SDS011;9652;49.014;12.052;2023-02-28T08:14:59;13.97;;;7.80;;
19038;SDS011;9652;49.014;12.052;2023-02-28T08:17:28;11.00;;;8.27;;
19038;SDS011;9652;49.014;12.052;2023-02-28T08:19:57;10.73;;;8.30;;
19038;SDS011;9652;49.014;12.052;2023-02-28T08:22:24;11.53;;;8.33;;
19038;SDS011;9652;49.014;12.052;2023-02-28T08:24:51;11.10;;;7.27;;
19038;SDS011;9652;49.014;12.052;2023-02-28T08:27:18;9.53;;;8.47;;
19038;SDS011;9652;49.014;12.052;2023-02-28T08:29:45;10.03;;;7.50;;
19038;SDS011;9652;49.014;12.052;2023-02-28T08:32:12;10.00;;;8.07;;
19038;SDS011;9652;49.014;12.052;2023-02-28T08:34:40;11.43;;;8.40;;
19038;SDS011;9652;49.014;12.052;2023-02-28T08:37:21;13.60;;;8.67;;
19038;SDS011;9652;49.014;12.052;2023-02-28T08:39:48;10.03;;;7.27;;
19038;SDS011;9652;49.014;12.052;2023-02-28T08:42:15;9.17;;;7.50;;
19038;SDS011;9652;49.014;12.052;2023-02-28T08:44:42;9.53;;;7.53;;
19038;SDS011;9652;49.014;12.052;2023-02-28T08:47:09;10.20;;;7.73;;
19038;SDS011;9652;49.014;12.052;2023-02-28T08:49:36;9.53;;;8.03;;
19038;SDS011;9652;49.014;12.052;2023-02-28T08:52:03;12.43;;;7.77;;
19038;SDS011;9652;49.014;12.052;2023-02-28T08:54:32;11.37;;;8.13;;
19038;SDS011;9652;49.014;12.052;2023-02-28T08:56:59;10.50;;;7.70;;
19038;SDS011;9652;49.014;12.052;2023-02-28T08:59:26;10.37;;;7.60;;
19038;SDS011;9652;49.014;12.052;2023-02-28T09:01:53;10.20;;;7.73;;
19038;SDS011;9652;49.014;12.052;2023-02-28T09:04:21;9.17;;;7.97;;
19038;SDS011;9652;49.014;12.052;2023-02-28T09:06:48;12.10;;;7.87;;
19038;SDS011;9652;49.014;12.052;2023-02-28T09:09:15;10.77;;;8.33;;
19038;SDS011;9652;49.014;12.052;2023-02-28T09:11:43;11.63;;;7.33;;
19038;SDS011;9652;49.014;12.052;2023-02-28T09:14:10;9.13;;;8.00;;
19038;SDS011;9652;49.014;12.052;2023-02-28T09:16:37;9.80;;;7.40;;
19038;SDS011;9652;49.014;12.052;2023-02-28T09:19:05;9.40;;;7.50;;
19038;SDS011;9652;49.014;12.052;2023-02-28T09:21:32;11.53;;;8.00;;
19038;SDS011;9652;49.014;12.052;2023-02-28T09:23:59;11.60;;;7.97;;
19038;SDS011;9652;49.014;12.052;2023-02-28T09:26:26;9.87;;;6.83;;
19038;SDS011;9652;49.014;12.052;2023-02-28T09:28:55;9.93;;;7.60;;
19038;SDS011;9652;49.014;12.052;2023-02-28T09:31:24;9.50;;;6.90;;
19038;SDS011;9652;49.014;12.052;2023-02-28T09:33:54;12.03;;;8.13;;
19038;SDS011;9652;49.014;12.052;2023-02-28T09:36:24;10.27;;;7.10;;
19038;SDS011;9652;49.014;12.052;2023-02-28T09:38:53;9.57;;;7.37;;
19038;SDS011;9652;49.014;12.052;2023-02-28T09:41:23;10.57;;;7.60;;
19038;SDS011;9652;49.014;12.052;2023-02-28T09:43:57;11.87;;;8.10;;
19038;SDS011;9652;49.014;12.052;2023-02-28T09:46:29;10.67;;;7.80;;
19038;SDS011;9652;49.014;12.052;2023-02-28T09:49:00;9.03;;;7.37;;
19038;SDS011;9652;49.014;12.052;2023-02-28T09:51:39;8.87;;;7.70;;
19038;SDS011;9652;49.014;12.052;2023-02-28T09:54:16;8.70;;;7.40;;
19038;SDS011;9652;49.014;12.052;2023-02-28T09:56:48;8.53;;;6.60;;
19038;SDS011;9652;49.014;12.052;2023-02-28T09:59:30;9.37;;;7.23;;
19038;SDS011;9652;49.014;12.052;2023-02-28T10:02:13;9.63;;;7.27;;
19038;SDS011;9652;49.014;12.052;2023-02-28T10:05:07;10.27;;;7.87;;
19038;SDS011;9652;49.014;12.052;2023-02-28T10:07:47;12.87;;;7.93;;
19038;SDS011;9652;49.014;12.052;2023-02-28T10:10:28;12.80;;;7.83;;
19038;SDS011;9652;49.014;12.052;2023-02-28T10:13:04;11.83;;;8.70;;
19038;SDS011;9652;49.014;12.052;2023-02-28T10:15:42;9.07;;;7.70;;
19038;SDS011;9652;49.014;12.052;2023-02-28T10:18:13;10.90;;;7.73;;
19038;SDS011;9652;49.014;12.052;2023-02-28T10:20:49;11.00;;;7.93;;
19038;SDS011;9652;49.014;12.052;2023-02-28T10:23:20;11.27;;;8.27;;
19038;SDS011;9652;49.014;12.052;2023-02-28T10:25:53;9.73;;;7.87;;
19038;SDS011;9652;49.014;12.052;2023-02-28T10:28:24;8.73;;;6.93;;
19038;SDS011;9652;49.014;12.052;2023-02-28T10:30:57;9.60;;;6.80;;
19038;SDS011;9652;49.014;12.052;2023-02-28T10:33:27;9.10;;;7.90;;
19038;SDS011;9652;49.014;12.052;2023-02-28T10:35:57;8.47;;;6.90;;
19038;SDS011;9652;49.014;12.052;2023-02-28T10:38:26;10.03;;;7.87;;
19038;SDS011;9652;49.014;12.052;2023-02-28T10:41:03;11.17;;;7.77;;
19038;SDS011;9652;49.014;12.052;2023-02-28T10:43:32;10.37;;;7.63;;
19038;SDS011;9652;49.014;12.052;2023-02-28T10:46:03;13.60;;;8.50;;
19038;SDS011;9652;49.014;12.052;2023-02-28T10:48:40;10.97;;;7.97;;
19038;SDS011;9652;49.014;12.052;2023-02-28T10:51:13;12.53;;;8.37;;
19038;SDS011;9652;49.014;12.052;2023-02-28T10:53:45;9.00;;;7.80;;
19038;SDS011;9652;49.014;12.052;2023-02-28T10:56:17;13.93;;;8.97;;
19038;SDS011;9652;49.014;12.052;2023-02-28T10:58:51;12.00;;;8.33;;
19038;SDS011;9652;49.014;12.052;2023-02-28T11:01:23;10.80;;;8.07;;
19038;SDS011;9652;49.014;12.052;2023-02-28T11:04:02;9.97;;;8.13;;
19038;SDS011;9652;49.014;12.052;2023-02-28T11:06:30;14.00;;;8.53;;
19038;SDS011;9652;49.014;12.052;2023-02-28T11:09:01;13.23;;;8.57;;
19038;SDS011;9652;49.014;12.052;2023-02-28T11:11:41;12.93;;;8.33;;
19038;SDS011;9652;49.014;12.052;2023-02-28T11:14:16;12.30;;;8.43;;
19038;SDS011;9652;49.014;12.052;2023-02-28T11:16:49;11.17;;;7.97;;
19038;SDS011;9652;49.014;12.052;2023-02-28T11:19:18;12.97;;;9.13;;
19038;SDS011;9652;49.014;12.052;2023-02-28T11:21:52;11.50;;;8.40;;
19038;SDS011;9652;49.014;12.052;2023-02-28T11:24:24;10.30;;;8.07;;
19038;SDS011;9652;49.014;12.052;2023-02-28T11:26:55;11.00;;;7.97;;
19038;SDS011;9652;49.014;12.052;2023-02-28T11:29:23;11.07;;;8.33;;
19038;SDS011;9652;49.014;12.052;2023-02-28T11:32:02;13.93;;;9.27;;
19038;SDS011;9652;49.014;12.052;2023-02-28T11:34:42;11.37;;;8.83;;
19038;SDS011;9652;49.014;12.052;2023-02-28T11:37:13;10.47;;;7.43;;
19038;SDS011;9652;49.014;12.052;2023-02-28T11:39:43;12.23;;;8.13;;
19038;SDS011;9652;49.014;12.052;2023-02-28T11:42:22;11.60;;;8.43;;
19038;SDS011;9652;49.014;12.052;2023-02-28T11:45:21;9.67;;;7.87;;
19038;SDS011;9652;49.014;12.052;2023-02-28T11:48:10;13.10;;;8.00;;
19038;SDS011;9652;49.014;12.052;2023-02-28T11:50:52;10.93;;;8.60;;
19038;SDS011;9652;49.014;12.052;2023-02-28T11:53:35;12.27;;;8.33;;
19038;SDS011;9652;49.014;12.052;2023-02-28T11:56:25;12.17;;;8.07;;
19038;SDS011;9652;49.014;12.052;2023-02-28T11:59:02;11.40;;;8.63;;
19038;SDS011;9652;49.014;12.052;2023-02-28T12:02:17;12.67;;;7.20;;
19038;SDS011;9652;49.014;12.052;2023-02-28T12:05:13;9.40;;;7.50;;
19038;SDS011;9652;49.014;12.052;2023-02-28T12:07:58;9.27;;;7.10;;
19038;SDS011;9652;49.014;12.052;2023-02-28T12:10:50;8.80;;;7.47;;
19038;SDS011;9652;49.014;12.052;2023-02-28T12:13:31;10.77;;;7.70;;
19038;SDS011;9652;49.014;12.052;2023-02-28T12:16:18;11.17;;;7.60;;
19038;SDS011;9652;49.014;12.052;2023-02-28T12:19:10;10.47;;;8.00;;
19038;SDS011;9652;49.014;12.052;2023-02-28T12:21:52;10.83;;;7.93;;
19038;SDS011;9652;49.014;12.052;2023-02-28T12:24:55;10.57;;;7.90;;
19038;SDS011;9652;49.014;12.052;2023-02-28T12:27:58;10.47;;;7.43;;
19038;SDS011;9652;49.014;12.052;2023-02-28T12:30:27;10.33;;;7.87;;
19038;SDS011;9652;49.014;12.052;2023-02-28T12:33:00;10.90;;;8.00;;
19038;SDS011;9652;49.014;12.052;2023-02-28T12:35:34;12.27;;;8.17;;
19038;SDS011;9652;49.014;12.052;2023-02-28T12:38:10;9.17;;;7.47;;
19038;SDS011;9652;49.014;12.052;2023-02-28T12:40:47;10.77;;;7.63;;
19038;SDS011;9652;49.014;12.052;2023-02-28T12:43:20;9.57;;;7.67;;
19038;SDS011;9652;49.014;12.052;2023-02-28T12:45:55;10.37;;;8.10;;
19038;SDS011;9652;49.014;12.052;2023-02-28T12:48:31;9.80;;;8.00;;
19038;SDS011;9652;49.014;12.052;2023-02-28T12:51:07;11.53;;;8.20;;
19038;SDS011;9652;49.014;12.052;2023-02-28T12:53:41;8.83;;;7.47;;
19038;SDS011;9652;49.014;12.052;2023-02-28T12:56:29;9.23;;;7.53;;
19038;SDS011;9652;49.014;12.052;2023-02-28T12:59:10;10.07;;;7.17;;
19038;SDS011;9652;49.014;12.052;2023-02-28T13:01:57;10.00;;;7.83;;
19038;SDS011;9652;49.014;12.052;2023-02-28T13:11:27;9.97;;;7.67;;
19038;SDS011;9652;49.014;12.052;2023-02-28T13:13:58;10.03;;;7.13;;
19038;SDS011;9652;49.014;12.052;2023-02-28T13:16:31;10.00;;;7.67;;
19038;SDS011;9652;49.014;12.052;2023-02-28T13:19:26;9.63;;;7.50;;
19038;SDS011;9652;49.014;12.052;2023-02-28T13:21:56;7.80;;;6.97;;
19038;SDS011;9652;49.014;12.052;2023-02-28T13:24:39;9.03;;;7.00;;
19038;SDS011;9652;49.014;12.052;2023-02-28T13:30:49;9.50;;;7.63;;
19038;SDS011;9652;49.014;12.052;2023-02-28T13:33:32;9.80;;;7.37;;
19038;SDS011;9652;49.014;12.052;2023-02-28T13:36:09;9.17;;;7.27;;
19038;SDS011;9652;49.014;12.052;2023-02-28T13:38:54;8.80;;;6.40;;
19038;SDS011;9652;49.014;12.052;2023-02-28T13:41:41;11.53;;;8.17;;
19038;SDS011;9652;49.014;12.052;2023-02-28T13:44:15;9.10;;;6.87;;
19038;SDS011;9652;49.014;12.052;2023-02-28T13:49:50;11.27;;;7.37;;
19038;SDS011;9652;49.014;12.052;2023-02-28T13:52:20;10.80;;;7.53;;
19038;SDS011;9652;49.014;12.052;2023-02-28T14:00:57;9.97;;;7.83;;
19038;SDS011;9652;49.014;12.052;2023-02-28T14:03:46;11.30;;;7.90;;
19038;SDS011;9652;49.014;12.052;2023-02-28T14:06:32;9.77;;;7.67;;
19038;SDS011;9652;49.014;12.052;2023-02-28T14:09:03;10.30;;;7.67;;
19038;SDS011;9652;49.014;12.052;2023-02-28T14:11:48;11.10;;;7.87;;
19038;SDS011;9652;49.014;12.052;2023-02-28T14:17:24;10.10;;;7.50;;
19038;SDS011;9652;49.014;12.052;2023-02-28T14:19:52;10.47;;;7.40;;
19038;SDS011;9652;49.014;12.052;2023-02-28T14:22:28;10.37;;;8.30;;
19038;SDS011;9652;49.014;12.052;2023-02-28T14:25:19;10.57;;;8.00;;
19038;SDS011;9652;49.014;12.052;2023-02-28T14:28:02;11.03;;;7.77;;
19038;SDS011;9652;49.014;12.052;2023-02-28T14:30:52;8.57;;;6.90;;
19038;SDS011;9652;49.014;12.052;2023-02-28T14:33:42;10.10;;;7.50;;
19038;SDS011;9652;49.014;12.052;2023-02-28T14:36:31;10.30;;;7.37;;
19038;SDS011;9652;49.014;12.052;2023-02-28T14:39:05;11.47;;;8.40;;
19038;SDS011;9652;49.014;12.052;2023-02-28T14:41:39;9.50;;;7.40;;
19038;SDS011;9652;49.014;12.052;2023-02-28T14:44:15;9.63;;;7.63;;
19038;SDS011;9652;49.014;12.052;2023-02-28T14:46:45;9.23;;;7.23;;
19038;SDS011;9652;49.014;12.052;2023-02-28T14:49:17;9.23;;;7.07;;
19038;SDS011;9652;49.014;12.052;2023-02-28T14:51:48;9.70;;;7.40;;
19038;SDS011;9652;49.014;12.052;2023-02-28T14:54:27;9.73;;;7.33;;
19038;SDS011;9652;49.014;12.052;2023-02-28T14:56:55;7.83;;;7.03;;
19038;SDS011;9652;49.014;12.052;2023-02-28T14:59:23;10.87;;;8.00;;
19038;SDS011;9652;49.014;12.052;2023-02-28T15:04:55;10.03;;;7.43;;
19038;SDS011;9652;49.014;12.052;2023-02-28T15:07:25;8.57;;;7.20;;
19038;SDS011;9652;49.014;12.052;2023-02-28T15:10:15;8.77;;;7.40;;
19038;SDS011;9652;49.014;12.052;2023-02-28T15:12:48;10.17;;;7.70;;
19038;SDS011;9652;49.014;12.052;2023-02-28T15:15:21;9.77;;;7.83;;
19038;SDS011;9652;49.014;12.052;2023-02-28T15:17:52;12.07;;;8.33;;
19038;SDS011;9652;49.014;12.052;2023-02-28T15:20:25;11.43;;;8.60;;
19038;SDS011;9652;49.014;12.052;2023-02-28T15:22:53;11.10;;;7.93;;
19038;SDS011;9652;49.014;12.052;2023-02-28T15:25:23;9.73;;;7.83;;
19038;SDS011;9652;49.014;12.052;2023-02-28T15:27:52;11.10;;;7.80;;
19038;SDS011;9652;49.014;12.052;2023-02-28T15:30:23;9.50;;;7.50;;
19038;SDS011;9652;49.014;12.052;2023-02-28T15:33:02;10.27;;;8.60;;
19038;SDS011;9652;49.014;12.052;2023-02-28T15:35:37;11.43;;;8.57;;
19038;SDS011;9652;49.014;12.052;2023-02-28T15:38:12;12.53;;;8.50;;
19038;SDS011;9652;49.014;12.052;2023-02-28T15:40:44;12.07;;;8.23;;
19038;SDS011;9652;49.014;12.052;2023-02-28T15:43:22;11.03;;;8.13;;
19038;SDS011;9652;49.014;12.052;2023-02-28T15:45:55;10.83;;;8.67;;
19038;SDS011;9652;49.014;12.052;2023-02-28T15:48:27;10.00;;;8.30;;
19038;SDS011;9652;49.014;12.052;2023-02-28T15:51:01;9.83;;;7.40;;
19038;SDS011;9652;49.014;12.052;2023-02-28T15:53:33;8.53;;;7.37;;
19038;SDS011;9652;49.014;12.052;2023-02-28T15:56:05;10.07;;;8.17;;